createdAt,value
2019-02-17T00:01:48.734Z,48.17
2019-02-17T00:04:18.220Z,39.10
2019-02-17T00:06:47.667Z,54.53
2019-02-17T00:09:17.131Z,63.43
2019-02-17T00:11:46.628Z,63.57
2019-02-17T00:14:16.087Z,59.10
2019-02-17T00:16:45.538Z,63.20
2019-02-17T00:19:15.018Z,37.10
2019-02-17T00:21:44.492Z,57.80
2019-02-17T00:24:13.942Z,39.93
2019-02-17T00:26:43.454Z,66.50
2019-02-17T00:29:12.907Z,61.80
2019-02-17T00:31:42.365Z,47.47
2019-02-17T00:34:13.720Z,46.30
2019-02-17T00:36:43.043Z,50.27
2019-02-17T00:39:12.557Z,58.20
2019-02-17T00:41:42.115Z,42.73
2019-02-17T00:44:11.583Z,53.93
2019-02-17T00:46:41.045Z,63.70
2019-02-17T00:49:10.528Z,48.37
2019-02-17T00:51:40.039Z,60.60
2019-02-17T00:54:09.489Z,44.40
2019-02-17T00:56:38.984Z,54.07
2019-02-17T00:59:10.455Z,46.47
2019-02-17T01:01:39.635Z,45.10
2019-02-17T01:04:09.106Z,48.37
2019-02-17T01:06:38.559Z,53.97
2019-02-17T01:09:08.096Z,67.07
2019-02-17T01:11:37.569Z,57.13
2019-02-17T01:14:07.037Z,48.27
2019-02-17T01:16:36.506Z,73.53
2019-02-17T01:19:05.981Z,68.10
2019-02-17T01:21:35.432Z,53.63
2019-02-17T01:24:05.277Z,61.93
2019-02-17T01:26:34.770Z,63.47
2019-02-17T01:29:04.232Z,68.27
2019-02-17T01:31:33.725Z,59.60
2019-02-17T01:34:09.854Z,58.00
2019-02-17T01:36:39.473Z,57.63
2019-02-17T01:39:09.396Z,54.70
2019-02-17T01:41:38.886Z,56.50
2019-02-17T01:44:08.344Z,51.20
2019-02-17T01:46:38.500Z,53.50
2019-02-17T01:49:08.151Z,49.43
2019-02-17T01:51:37.692Z,56.13
2019-02-17T01:54:07.488Z,56.57
2019-02-17T01:56:36.971Z,44.80
2019-02-17T01:59:06.434Z,44.23
2019-02-17T02:01:35.894Z,57.23
2019-02-17T02:04:05.574Z,45.30
2019-02-17T02:06:35.021Z,58.80
2019-02-17T02:09:07.557Z,49.20
2019-02-17T02:11:37.057Z,46.30
2019-02-17T02:14:06.608Z,44.27
2019-02-17T02:16:36.147Z,53.43
2019-02-17T02:19:05.867Z,49.13
2019-02-17T02:21:35.318Z,50.93
2019-02-17T02:24:04.847Z,51.97
2019-02-17T02:26:34.339Z,45.17
2019-02-17T02:29:03.790Z,52.30
2019-02-17T02:31:33.240Z,50.83
2019-02-17T02:34:02.765Z,55.33
2019-02-17T02:36:32.183Z,48.13
2019-02-17T02:39:01.654Z,56.73
2019-02-17T02:41:34.768Z,56.77
2019-02-17T02:44:02.307Z,50.70
2019-02-17T02:46:31.753Z,52.17
2019-02-17T02:49:01.260Z,51.70
2019-02-17T02:51:30.708Z,58.50
2019-02-17T02:54:00.165Z,54.10
2019-02-17T02:56:29.830Z,54.40
2019-02-17T02:58:59.280Z,61.80
2019-02-17T03:01:28.722Z,51.80
2019-02-17T03:03:58.218Z,56.37
2019-02-17T03:06:41.434Z,52.27
2019-02-17T03:09:10.903Z,66.10
2019-02-17T03:11:40.360Z,62.57
2019-02-17T03:14:09.826Z,57.57
2019-02-17T03:16:39.315Z,58.37
2019-02-17T03:19:08.776Z,61.87
2019-02-17T03:21:38.331Z,58.07
2019-02-17T03:24:07.880Z,51.73
2019-02-17T03:26:37.351Z,66.90
2019-02-17T03:29:06.816Z,64.67
2019-02-17T03:31:36.310Z,66.20
2019-02-17T03:34:05.935Z,67.00
2019-02-17T03:36:35.378Z,60.83
2019-02-17T03:39:06.996Z,58.97
2019-02-17T03:41:36.452Z,55.03
2019-02-17T03:44:05.976Z,45.53
2019-02-17T03:46:35.435Z,49.40
2019-02-17T03:49:04.885Z,59.97
2019-02-17T03:51:34.354Z,60.37
2019-02-17T03:54:03.852Z,75.50
2019-02-17T03:56:33.316Z,53.03
2019-02-17T03:59:02.849Z,51.90
2019-02-17T04:01:32.326Z,47.80
2019-02-17T04:04:01.837Z,49.43
2019-02-17T04:06:31.300Z,42.93
2019-02-17T04:09:00.788Z,53.87
2019-02-17T04:11:30.247Z,66.00
2019-02-17T04:13:59.729Z,61.10
2019-02-17T04:16:29.187Z,74.00
2019-02-17T04:18:58.650Z,47.40
2019-02-17T04:21:28.096Z,45.77
2019-02-17T04:23:57.584Z,47.53
2019-02-17T04:26:27.032Z,56.30
2019-02-17T04:28:56.494Z,67.20
2019-02-17T04:31:25.962Z,68.43
2019-02-17T04:33:55.422Z,64.13
2019-02-17T04:36:24.894Z,68.83
2019-02-17T04:38:54.378Z,56.23
2019-02-17T04:41:23.848Z,62.53
2019-02-17T04:43:53.297Z,68.20
2019-02-17T04:46:22.781Z,64.60
2019-02-17T04:48:52.247Z,55.90
2019-02-17T04:51:21.767Z,45.90
2019-02-17T04:53:51.323Z,53.17
2019-02-17T04:56:20.774Z,55.47
2019-02-17T04:58:50.237Z,69.27
2019-02-17T05:01:21.757Z,58.60
2019-02-17T05:03:51.191Z,67.80
2019-02-17T05:06:20.655Z,68.13
2019-02-17T05:08:50.139Z,67.97
2019-02-17T05:11:19.602Z,67.90
2019-02-17T05:13:49.050Z,77.17
2019-02-17T05:16:18.543Z,52.90
2019-02-17T05:18:47.991Z,58.20
2019-02-17T05:21:17.436Z,49.63
2019-02-17T05:23:46.931Z,67.00
2019-02-17T05:26:16.397Z,65.23
2019-02-17T05:28:45.849Z,75.67
2019-02-17T05:31:15.353Z,63.23
2019-02-17T05:33:44.814Z,56.30
2019-02-17T05:36:15.771Z,54.47
2019-02-17T05:38:45.268Z,71.33
2019-02-17T05:41:14.716Z,65.30
2019-02-17T05:43:44.183Z,73.80
2019-02-17T05:46:13.657Z,75.37
2019-02-17T05:48:43.123Z,74.50
2019-02-17T05:51:12.573Z,50.97
2019-02-17T05:53:42.092Z,64.43
2019-02-17T05:56:11.540Z,76.40
2019-02-17T05:58:41.003Z,86.80
2019-02-17T06:01:10.501Z,82.33
2019-02-17T06:03:40.007Z,81.30
2019-02-17T06:06:09.484Z,82.70
2019-02-17T06:08:38.959Z,81.07
2019-02-17T06:11:08.426Z,66.30
2019-02-17T06:13:37.893Z,53.70
2019-02-17T06:16:07.369Z,51.47
2019-02-17T06:18:36.825Z,53.80
2019-02-17T06:21:06.291Z,54.50
2019-02-17T06:23:35.807Z,62.40
2019-02-17T06:26:05.274Z,61.90
2019-02-17T06:28:34.738Z,52.47
2019-02-17T06:31:13.704Z,50.70
2019-02-17T06:33:35.465Z,52.87
2019-02-17T06:36:04.931Z,47.27
2019-02-17T06:38:34.399Z,57.00
2019-02-17T06:41:03.869Z,58.13
2019-02-17T06:43:33.339Z,79.43
2019-02-17T06:46:03.287Z,81.87
2019-02-17T06:48:32.744Z,88.60
2019-02-17T06:51:02.211Z,105.67
2019-02-17T06:53:31.690Z,101.37
2019-02-17T06:56:02.799Z,96.37
2019-02-17T06:58:32.253Z,60.50
2019-02-17T07:01:01.741Z,64.33
2019-02-17T07:03:31.206Z,61.07
2019-02-17T07:06:02.333Z,64.50
2019-02-17T07:08:31.807Z,79.87
2019-02-17T07:11:01.242Z,75.10
2019-02-17T07:13:30.686Z,64.63
2019-02-17T07:16:00.181Z,52.60
2019-02-17T07:18:29.647Z,69.87
2019-02-17T07:20:59.092Z,58.30
2019-02-17T07:23:28.580Z,57.27
2019-02-17T07:25:58.040Z,58.20
2019-02-17T07:28:27.490Z,101.47
2019-02-17T07:30:56.978Z,98.73
2019-02-17T07:33:26.450Z,61.00
2019-02-17T07:35:55.919Z,55.20
2019-02-17T07:38:25.396Z,88.17
2019-02-17T07:40:54.867Z,88.20
2019-02-17T07:43:24.480Z,85.10
2019-02-17T07:45:54.139Z,86.20
2019-02-17T07:48:23.607Z,70.13
2019-02-17T07:50:53.201Z,87.77
2019-02-17T07:53:22.686Z,73.13
2019-02-17T07:55:52.161Z,68.83
2019-02-17T07:58:21.599Z,61.83
2019-02-17T08:00:51.154Z,56.40
2019-02-17T08:03:20.829Z,59.17
2019-02-17T08:05:50.296Z,52.27
2019-02-17T08:08:19.781Z,52.73
2019-02-17T08:10:49.234Z,53.50
2019-02-17T08:13:22.080Z,51.83
2019-02-17T08:15:52.978Z,55.30
2019-02-17T08:18:22.404Z,52.90
2019-02-17T08:20:51.864Z,53.50
2019-02-17T08:23:21.352Z,53.63
2019-02-17T08:25:50.865Z,59.30
2019-02-17T08:28:20.338Z,58.93
2019-02-17T08:30:49.811Z,53.87
2019-02-17T08:33:19.264Z,53.67
2019-02-17T08:35:48.725Z,53.77
2019-02-17T08:38:18.218Z,52.13
2019-02-17T08:40:47.674Z,50.80
2019-02-17T08:43:17.203Z,58.50
2019-02-17T08:45:46.671Z,56.20
2019-02-17T08:48:16.129Z,58.70
2019-02-17T08:50:45.593Z,58.77
2019-02-17T08:53:15.093Z,60.77
2019-02-17T08:55:44.577Z,46.57
2019-02-17T08:58:14.039Z,53.17
2019-02-17T09:00:43.516Z,48.90
2019-02-17T09:03:12.972Z,46.77
2019-02-17T09:05:44.453Z,38.70
2019-02-17T09:08:13.672Z,44.07
2019-02-17T09:10:43.149Z,49.17
2019-02-17T09:13:12.615Z,47.63
2019-02-17T09:15:42.090Z,49.23
2019-02-17T09:18:11.765Z,46.53
2019-02-17T09:20:41.205Z,38.40
2019-02-17T09:23:11.607Z,40.00
2019-02-17T09:25:41.062Z,40.83
2019-02-17T09:28:10.530Z,42.10
2019-02-17T09:30:40.011Z,35.37
2019-02-17T09:33:09.461Z,38.10
2019-02-17T09:35:38.907Z,36.13
2019-02-17T09:38:08.401Z,37.10
2019-02-17T09:40:37.996Z,36.63
2019-02-17T09:43:07.458Z,36.50
2019-02-17T09:45:36.970Z,31.93
2019-02-17T09:48:06.421Z,36.90
2019-02-17T09:50:35.862Z,33.87
2019-02-17T09:53:05.343Z,33.10
2019-02-17T09:55:34.835Z,26.60
2019-02-17T09:58:04.760Z,25.53
2019-02-17T10:00:34.228Z,24.67
2019-02-17T10:03:03.712Z,23.33
2019-02-17T10:05:33.166Z,22.00
2019-02-17T10:08:02.651Z,22.40
2019-02-17T10:10:32.165Z,18.93
2019-02-17T10:13:01.686Z,16.90
2019-02-17T10:15:31.349Z,16.60
2019-02-17T10:18:00.810Z,14.63
2019-02-17T10:20:30.296Z,15.47
2019-02-17T10:22:59.756Z,13.30
2019-02-17T10:25:29.252Z,13.60
2019-02-17T10:27:58.709Z,13.40
2019-02-17T10:30:28.344Z,14.13
2019-02-17T10:32:59.668Z,16.27
2019-02-17T10:35:29.118Z,15.10
2019-02-17T10:37:58.602Z,16.43
2019-02-17T10:40:28.061Z,15.20
2019-02-17T10:42:57.543Z,14.97
2019-02-17T10:45:27.035Z,14.50
2019-02-17T10:47:56.525Z,15.07
2019-02-17T10:50:25.985Z,16.00
2019-02-17T10:52:55.465Z,16.87
2019-02-17T10:55:24.927Z,16.43
2019-02-17T10:57:54.423Z,16.40
2019-02-17T11:00:24.144Z,16.17
2019-02-17T11:02:53.596Z,17.90
2019-02-17T11:05:23.156Z,17.90
2019-02-17T11:07:52.643Z,15.77
2019-02-17T11:10:22.100Z,16.40
2019-02-17T11:12:51.597Z,17.57
2019-02-17T11:15:21.742Z,15.27
2019-02-17T11:17:51.192Z,16.87
2019-02-17T11:20:20.807Z,17.17
2019-02-17T11:22:50.273Z,21.67
2019-02-17T11:25:19.727Z,17.33
2019-02-17T11:27:49.204Z,17.40
2019-02-17T11:30:43.208Z,17.57
2019-02-17T11:33:12.675Z,17.37
2019-02-17T11:35:42.147Z,16.23
2019-02-17T11:38:11.614Z,14.10
2019-02-17T11:40:41.143Z,15.63
2019-02-17T11:43:10.670Z,17.83
2019-02-17T11:45:40.139Z,17.27
2019-02-17T11:48:09.623Z,16.70
2019-02-17T11:50:39.079Z,17.10
2019-02-17T11:53:08.574Z,15.20
2019-02-17T11:55:38.035Z,16.70
2019-02-17T11:58:07.524Z,16.10
2019-02-17T12:00:36.985Z,18.03
2019-02-17T12:03:08.286Z,15.63
2019-02-17T12:05:37.696Z,17.23
2019-02-17T12:08:07.177Z,16.83
2019-02-17T12:10:36.674Z,18.97
2019-02-17T12:13:06.125Z,15.13
2019-02-17T12:15:35.724Z,17.77
2019-02-17T12:18:05.185Z,16.53
2019-02-17T12:20:45.387Z,16.60
2019-02-17T12:23:25.336Z,14.90
2019-02-17T12:25:56.440Z,15.57
2019-02-17T12:28:30.492Z,16.00
2019-02-17T12:30:59.946Z,16.03
2019-02-17T12:33:29.433Z,15.60
2019-02-17T12:35:58.870Z,16.50
2019-02-17T12:38:28.370Z,16.33
2019-02-17T12:40:57.830Z,15.87
2019-02-17T12:43:27.288Z,15.90
2019-02-17T12:45:56.792Z,16.10
2019-02-17T12:48:26.255Z,16.90
2019-02-17T12:50:55.718Z,15.10
2019-02-17T12:53:25.194Z,16.50
2019-02-17T12:55:54.670Z,15.10
2019-02-17T12:58:30.011Z,15.40
2019-02-17T13:00:55.374Z,15.03
2019-02-17T13:03:28.559Z,14.97
2019-02-17T13:05:56.080Z,15.63
2019-02-17T13:08:25.529Z,16.50
2019-02-17T13:10:54.990Z,16.20
2019-02-17T13:13:24.517Z,15.33
2019-02-17T13:15:54.003Z,18.60
2019-02-17T13:18:23.496Z,16.83
2019-02-17T13:20:52.957Z,17.13
2019-02-17T13:23:22.455Z,17.73
2019-02-17T13:25:51.914Z,16.90
2019-02-17T13:28:21.418Z,15.97
2019-02-17T13:30:50.879Z,15.93
2019-02-17T13:33:20.354Z,17.20
2019-02-17T13:35:49.842Z,17.50
2019-02-17T13:38:19.316Z,18.20
2019-02-17T13:40:48.854Z,17.20
2019-02-17T13:43:18.336Z,17.10
2019-02-17T13:45:47.830Z,15.77
2019-02-17T13:48:17.353Z,16.17
2019-02-17T13:50:47.036Z,16.67
2019-02-17T13:53:16.602Z,16.70
2019-02-17T13:55:46.053Z,14.53
2019-02-17T13:58:15.544Z,15.10
2019-02-17T14:00:45.110Z,17.10
2019-02-17T14:03:14.572Z,15.60
2019-02-17T14:05:44.058Z,15.70
2019-02-17T14:08:13.532Z,16.93
2019-02-17T14:10:42.999Z,16.53
2019-02-17T14:13:12.502Z,15.30
2019-02-17T14:15:41.976Z,15.63
2019-02-17T14:18:11.442Z,16.83
2019-02-17T14:20:41.103Z,15.10
2019-02-17T14:23:10.558Z,15.67
2019-02-17T14:25:40.022Z,11.47
2019-02-17T14:28:09.486Z,11.80
2019-02-17T14:30:38.942Z,14.67
2019-02-17T14:33:08.403Z,15.03
2019-02-17T14:35:37.863Z,17.60
2019-02-17T14:38:07.357Z,17.40
2019-02-17T14:40:36.811Z,16.67
2019-02-17T14:43:06.335Z,18.23
2019-02-17T14:45:35.791Z,18.20
2019-02-17T14:48:05.251Z,15.53
2019-02-17T14:50:34.738Z,18.40
2019-02-17T14:53:04.194Z,17.30
2019-02-17T14:55:33.693Z,16.80
2019-02-17T14:58:05.772Z,17.60
2019-02-17T15:00:34.402Z,19.33
2019-02-17T15:03:03.859Z,16.63
2019-02-17T15:05:33.482Z,16.27
2019-02-17T15:08:03.009Z,17.87
2019-02-17T15:10:32.468Z,19.40
2019-02-17T15:13:01.962Z,20.30
2019-02-17T15:15:31.461Z,20.20
2019-02-17T15:18:00.927Z,18.90
2019-02-17T15:20:30.389Z,17.90
2019-02-17T15:22:59.882Z,16.10
2019-02-17T15:25:29.351Z,12.53
2019-02-17T15:27:58.848Z,16.53
2019-02-17T15:30:28.309Z,17.80
2019-02-17T15:33:04.174Z,15.47
2019-02-17T15:35:49.998Z,17.00
2019-02-17T15:38:19.492Z,16.53
2019-02-17T15:40:48.942Z,15.50
2019-02-17T15:43:18.435Z,11.50
2019-02-17T15:45:48.012Z,11.67
2019-02-17T15:48:17.547Z,12.47
2019-02-17T15:50:47.044Z,11.83
2019-02-17T15:53:16.492Z,21.20
2019-02-17T15:55:45.987Z,16.20
2019-02-17T15:58:23.807Z,15.00
2019-02-17T16:00:53.304Z,11.87
2019-02-17T16:03:22.758Z,10.80
2019-02-17T16:05:52.221Z,11.90
2019-02-17T16:08:22.003Z,13.20
2019-02-17T16:10:51.454Z,11.13
2019-02-17T16:13:20.978Z,12.17
2019-02-17T16:15:50.440Z,11.67
2019-02-17T16:18:19.932Z,13.30
2019-02-17T16:20:49.412Z,12.50
2019-02-17T16:23:18.885Z,12.80
2019-02-17T16:25:48.388Z,10.87
2019-02-17T16:28:18.424Z,11.77
2019-02-17T16:30:47.888Z,11.77
2019-02-17T16:33:17.362Z,11.93
2019-02-17T16:35:47.052Z,12.17
2019-02-17T16:38:16.502Z,11.63
2019-02-17T16:40:45.953Z,12.63
2019-02-17T16:43:15.418Z,46.30
2019-02-17T16:45:44.930Z,49.47
2019-02-17T16:48:14.384Z,36.83
2019-02-17T16:50:43.837Z,20.10
2019-02-17T16:53:13.325Z,44.87
2019-02-17T16:55:42.785Z,26.83
2019-02-17T16:58:12.250Z,30.50
2019-02-17T17:00:41.750Z,21.87
2019-02-17T17:03:11.194Z,26.30
2019-02-17T17:05:40.763Z,43.47
2019-02-17T17:08:10.282Z,23.53
2019-02-17T17:10:39.813Z,32.77
2019-02-17T17:13:13.327Z,28.57
2019-02-17T17:15:42.786Z,30.50
2019-02-17T17:18:12.280Z,28.27
2019-02-17T17:20:41.805Z,28.43
2019-02-17T17:23:11.261Z,22.77
2019-02-17T17:25:40.769Z,32.03
2019-02-17T17:28:10.233Z,30.03
2019-02-17T17:30:39.694Z,29.43
2019-02-17T17:33:09.198Z,22.00
2019-02-17T17:35:38.658Z,31.17
2019-02-17T17:38:09.672Z,32.17
2019-02-17T17:40:39.161Z,33.70
2019-02-17T17:43:08.626Z,30.00
2019-02-17T17:45:38.089Z,25.80
2019-02-17T17:48:07.590Z,27.67
2019-02-17T17:50:37.129Z,30.13
2019-02-17T17:53:06.619Z,32.77
2019-02-17T17:55:36.069Z,32.33
2019-02-17T17:58:05.540Z,29.30
2019-02-17T18:00:36.628Z,21.93
2019-02-17T18:03:06.125Z,17.50
2019-02-17T18:05:35.590Z,22.17
2019-02-17T18:08:05.076Z,20.67
2019-02-17T18:10:34.523Z,23.30
2019-02-17T18:13:04.017Z,24.80
2019-02-17T18:15:33.520Z,23.90
2019-02-17T18:18:02.976Z,64.37
2019-02-17T18:20:32.431Z,39.70
2019-02-17T18:23:01.929Z,27.70
2019-02-17T18:25:31.422Z,23.87
2019-02-17T18:28:00.870Z,20.77
2019-02-17T18:30:30.750Z,17.87
2019-02-17T18:33:00.197Z,16.20
2019-02-17T18:35:29.654Z,18.53
2019-02-17T18:37:59.178Z,15.67
2019-02-17T18:40:28.645Z,15.07
2019-02-17T18:42:58.094Z,21.37
2019-02-17T18:45:27.574Z,24.37
2019-02-17T18:47:57.041Z,22.47
2019-02-17T18:50:26.533Z,19.63
2019-02-17T18:52:55.987Z,14.07
2019-02-17T18:55:25.492Z,19.03
2019-02-17T18:57:54.946Z,17.07
2019-02-17T19:00:27.112Z,16.40
2019-02-17T19:02:56.568Z,16.77
2019-02-17T19:05:31.997Z,21.23
2019-02-17T19:07:57.250Z,17.87
2019-02-17T19:10:26.736Z,17.60
2019-02-17T19:12:56.190Z,16.77
2019-02-17T19:15:25.707Z,16.20
2019-02-17T19:17:55.149Z,16.97
2019-02-17T19:20:31.197Z,15.53
2019-02-17T19:23:00.687Z,12.93
2019-02-17T19:25:30.141Z,13.80
2019-02-17T19:27:59.624Z,13.27
2019-02-17T19:30:29.088Z,17.83
2019-02-17T19:32:58.573Z,17.90
2019-02-17T19:35:28.025Z,16.97
2019-02-17T19:37:57.543Z,17.33
2019-02-17T19:40:27.002Z,18.73
2019-02-17T19:42:56.482Z,20.60
2019-02-17T19:45:26.142Z,20.10
2019-02-17T19:47:55.587Z,22.90
2019-02-17T19:50:25.043Z,19.13
2019-02-17T19:52:54.531Z,20.00
2019-02-17T19:55:25.526Z,20.47
2019-02-17T19:57:55.491Z,17.10
2019-02-17T20:00:25.111Z,15.07
2019-02-17T20:03:13.041Z,11.20
2019-02-17T20:05:52.102Z,14.87
2019-02-17T20:08:18.413Z,25.93
2019-02-17T20:10:47.992Z,20.77
2019-02-17T20:13:17.441Z,21.83
2019-02-17T20:15:46.888Z,19.57
2019-02-17T20:18:16.336Z,19.50
2019-02-17T20:20:46.033Z,27.10
2019-02-17T20:23:15.480Z,32.63
2019-02-17T20:25:44.967Z,23.53
2019-02-17T20:28:14.551Z,11.60
2019-02-17T20:30:44.006Z,24.40
2019-02-17T20:33:13.458Z,28.90
2019-02-17T20:35:42.998Z,28.73
2019-02-17T20:38:12.483Z,12.97
2019-02-17T20:40:41.897Z,19.53
2019-02-17T20:43:11.401Z,16.13
2019-02-17T20:45:40.978Z,21.00
2019-02-17T20:48:10.607Z,12.40
2019-02-17T20:50:40.090Z,28.87
2019-02-17T20:53:09.533Z,42.60
2019-02-17T20:55:39.036Z,25.50
2019-02-17T20:58:08.481Z,48.37
2019-02-17T21:00:39.480Z,45.33
2019-02-17T21:03:09.260Z,36.93
2019-02-17T21:05:38.724Z,56.13
2019-02-17T21:08:08.177Z,56.20
2019-02-17T21:10:37.732Z,42.87
2019-02-17T21:13:07.178Z,34.13
2019-02-17T21:15:36.641Z,22.13
2019-02-17T21:18:06.137Z,37.90
2019-02-17T21:20:35.583Z,39.83
2019-02-17T21:23:05.099Z,33.80
2019-02-17T21:25:34.566Z,33.30
2019-02-17T21:28:04.027Z,37.20
2019-02-17T21:30:33.488Z,40.37
2019-02-17T21:33:03.092Z,44.63
2019-02-17T21:35:32.536Z,48.53
2019-02-17T21:38:02.000Z,29.40
2019-02-17T21:40:31.540Z,28.27
2019-02-17T21:43:01.003Z,40.33
2019-02-17T21:45:30.452Z,43.30
2019-02-17T21:47:59.958Z,47.60
2019-02-17T21:50:29.415Z,41.43
2019-02-17T21:52:58.868Z,42.93
2019-02-17T21:55:28.348Z,24.53
2019-02-17T21:57:57.800Z,18.37
2019-02-17T22:00:27.249Z,20.57
2019-02-17T22:02:56.780Z,47.53
2019-02-17T22:05:26.200Z,30.30
2019-02-17T22:07:55.657Z,22.60
2019-02-17T22:10:25.136Z,20.57
2019-02-17T22:12:54.587Z,54.03
2019-02-17T22:15:26.756Z,60.07
2019-02-17T22:17:56.238Z,52.07
2019-02-17T22:20:25.694Z,27.00
2019-02-17T22:22:55.142Z,21.93
2019-02-17T22:25:24.633Z,24.53
2019-02-17T22:27:54.093Z,28.90
2019-02-17T22:30:23.529Z,30.80
2019-02-17T22:32:53.051Z,23.40
2019-02-17T22:35:22.513Z,22.87
2019-02-17T22:37:51.979Z,36.33
2019-02-17T22:40:21.475Z,33.00
2019-02-17T22:42:50.933Z,51.13
2019-02-17T22:45:20.428Z,27.57
2019-02-17T22:47:50.003Z,27.70
2019-02-17T22:50:19.830Z,27.57
2019-02-17T22:52:49.297Z,26.37
2019-02-17T22:55:18.937Z,33.57
2019-02-17T22:57:48.614Z,29.70
2019-02-17T23:00:27.186Z,104.30
2019-02-17T23:02:56.809Z,102.37
2019-02-17T23:05:26.265Z,100.13
2019-02-17T23:07:55.782Z,115.63
2019-02-17T23:10:25.248Z,84.30
2019-02-17T23:12:54.691Z,94.73
2019-02-17T23:15:24.183Z,83.57
2019-02-17T23:17:53.641Z,32.90
2019-02-17T23:20:23.172Z,73.07
2019-02-17T23:22:52.648Z,81.10
2019-02-17T23:25:22.415Z,99.57
2019-02-17T23:27:51.937Z,116.87
2019-02-17T23:30:21.426Z,117.40
2019-02-17T23:32:50.887Z,111.97
2019-02-17T23:35:20.358Z,92.50
2019-02-17T23:37:49.842Z,89.87
2019-02-17T23:40:19.305Z,101.37
2019-02-17T23:42:48.770Z,73.20
2019-02-17T23:45:18.278Z,54.33
2019-02-17T23:47:47.736Z,39.67
2019-02-17T23:50:17.395Z,42.77
2019-02-17T23:52:46.872Z,41.10
2019-02-17T23:55:16.344Z,56.93
2019-02-17T23:57:45.799Z,48.70
